sensor_id;sensor_type;location;lat;lon;timestamp;P1;durP1;ratioP1;P2;durP2;ratioP2
11955;SDS011;6038;52.276;10.530;2022-10-16T00:00:33;1.13;;;1.13;;
11955;SDS011;6038;52.276;10.530;2022-10-16T00:03:00;1.00;;;1.00;;
11955;SDS011;6038;52.276;10.530;2022-10-16T00:05:26;0.73;;;0.73;;
11955;SDS011;6038;52.276;10.530;2022-10-16T00:07:52;0.70;;;0.70;;
11955;SDS011;6038;52.276;10.530;2022-10-16T00:10:18;0.77;;;0.77;;
11955;SDS011;6038;52.276;10.530;2022-10-16T00:12:44;0.67;;;0.67;;
11955;SDS011;6038;52.276;10.530;2022-10-16T00:15:10;0.67;;;0.67;;
11955;SDS011;6038;52.276;10.530;2022-10-16T00:17:36;0.70;;;0.70;;
11955;SDS011;6038;52.276;10.530;2022-10-16T00:20:03;1.23;;;1.23;;
11955;SDS011;6038;52.276;10.530;2022-10-16T00:22:29;0.97;;;0.97;;
11955;SDS011;6038;52.276;10.530;2022-10-16T00:24:55;1.13;;;1.13;;
11955;SDS011;6038;52.276;10.530;2022-10-16T00:27:21;0.77;;;0.77;;
11955;SDS011;6038;52.276;10.530;2022-10-16T00:29:50;1.20;;;1.20;;
11955;SDS011;6038;52.276;10.530;2022-10-16T00:32:17;1.13;;;1.13;;
11955;SDS011;6038;52.276;10.530;2022-10-16T00:34:43;0.77;;;0.77;;
11955;SDS011;6038;52.276;10.530;2022-10-16T00:37:09;0.97;;;0.97;;
11955;SDS011;6038;52.276;10.530;2022-10-16T00:39:35;0.93;;;0.93;;
11955;SDS011;6038;52.276;10.530;2022-10-16T00:42:01;1.03;;;1.03;;
11955;SDS011;6038;52.276;10.530;2022-10-16T00:47:23;1.10;;;1.10;;
11955;SDS011;6038;52.276;10.530;2022-10-16T00:49:50;1.07;;;1.07;;
11955;SDS011;6038;52.276;10.530;2022-10-16T00:52:17;1.00;;;1.00;;
11955;SDS011;6038;52.276;10.530;2022-10-16T00:54:43;1.13;;;1.13;;
11955;SDS011;6038;52.276;10.530;2022-10-16T00:57:11;0.83;;;0.83;;
11955;SDS011;6038;52.276;10.530;2022-10-16T00:59:38;1.03;;;1.03;;
11955;SDS011;6038;52.276;10.530;2022-10-16T01:02:05;1.17;;;1.17;;
11955;SDS011;6038;52.276;10.530;2022-10-16T01:04:35;1.03;;;1.03;;
11955;SDS011;6038;52.276;10.530;2022-10-16T01:09:55;1.40;;;1.40;;
11955;SDS011;6038;52.276;10.530;2022-10-16T01:12:45;0.77;;;0.77;;
11955;SDS011;6038;52.276;10.530;2022-10-16T01:15:25;0.83;;;0.83;;
11955;SDS011;6038;52.276;10.530;2022-10-16T01:20:37;0.83;;;0.83;;
11955;SDS011;6038;52.276;10.530;2022-10-16T01:23:16;0.90;;;0.90;;
11955;SDS011;6038;52.276;10.530;2022-10-16T01:28:16;1.10;;;1.10;;
11955;SDS011;6038;52.276;10.530;2022-10-16T01:30:43;0.80;;;0.80;;
11955;SDS011;6038;52.276;10.530;2022-10-16T01:33:28;0.87;;;0.87;;
11955;SDS011;6038;52.276;10.530;2022-10-16T01:35:58;0.97;;;0.97;;
11955;SDS011;6038;52.276;10.530;2022-10-16T01:38:34;0.93;;;0.93;;
11955;SDS011;6038;52.276;10.530;2022-10-16T01:41:03;1.00;;;1.00;;
11955;SDS011;6038;52.276;10.530;2022-10-16T01:43:33;1.13;;;1.13;;
11955;SDS011;6038;52.276;10.530;2022-10-16T01:46:02;0.80;;;0.80;;
11955;SDS011;6038;52.276;10.530;2022-10-16T01:48:28;1.30;;;1.30;;
11955;SDS011;6038;52.276;10.530;2022-10-16T01:50:56;0.87;;;0.87;;
11955;SDS011;6038;52.276;10.530;2022-10-16T01:53:24;0.77;;;0.77;;
11955;SDS011;6038;52.276;10.530;2022-10-16T01:55:50;0.90;;;0.90;;
11955;SDS011;6038;52.276;10.530;2022-10-16T01:58:18;1.20;;;1.20;;
11955;SDS011;6038;52.276;10.530;2022-10-16T02:00:44;0.87;;;0.87;;
11955;SDS011;6038;52.276;10.530;2022-10-16T02:03:11;1.13;;;1.13;;
11955;SDS011;6038;52.276;10.530;2022-10-16T02:05:39;1.17;;;1.17;;
11955;SDS011;6038;52.276;10.530;2022-10-16T02:08:07;1.23;;;1.23;;
11955;SDS011;6038;52.276;10.530;2022-10-16T02:10:34;0.93;;;0.93;;
11955;SDS011;6038;52.276;10.530;2022-10-16T02:13:04;1.03;;;1.03;;
11955;SDS011;6038;52.276;10.530;2022-10-16T02:15:31;1.13;;;1.13;;
11955;SDS011;6038;52.276;10.530;2022-10-16T02:17:57;0.90;;;0.90;;
11955;SDS011;6038;52.276;10.530;2022-10-16T02:20:25;1.33;;;1.33;;
11955;SDS011;6038;52.276;10.530;2022-10-16T02:22:51;1.00;;;1.00;;
11955;SDS011;6038;52.276;10.530;2022-10-16T02:27:46;1.23;;;1.23;;
11955;SDS011;6038;52.276;10.530;2022-10-16T02:30:36;1.30;;;1.30;;
11955;SDS011;6038;52.276;10.530;2022-10-16T02:33:00;1.13;;;1.13;;
11955;SDS011;6038;52.276;10.530;2022-10-16T02:35:28;0.63;;;0.63;;
11955;SDS011;6038;52.276;10.530;2022-10-16T02:37:54;1.37;;;1.37;;
11955;SDS011;6038;52.276;10.530;2022-10-16T02:40:21;1.07;;;1.07;;
11955;SDS011;6038;52.276;10.530;2022-10-16T02:42:49;1.17;;;1.17;;
11955;SDS011;6038;52.276;10.530;2022-10-16T02:45:16;1.20;;;1.20;;
11955;SDS011;6038;52.276;10.530;2022-10-16T02:47:42;0.80;;;0.80;;
11955;SDS011;6038;52.276;10.530;2022-10-16T02:50:08;0.97;;;0.97;;
11955;SDS011;6038;52.276;10.530;2022-10-16T02:52:34;0.90;;;0.90;;
11955;SDS011;6038;52.276;10.530;2022-10-16T02:55:00;0.93;;;0.93;;
11955;SDS011;6038;52.276;10.530;2022-10-16T02:57:26;0.83;;;0.83;;
11955;SDS011;6038;52.276;10.530;2022-10-16T02:59:52;1.03;;;1.03;;
11955;SDS011;6038;52.276;10.530;2022-10-16T03:02:18;1.00;;;1.00;;
11955;SDS011;6038;52.276;10.530;2022-10-16T03:04:44;0.97;;;0.97;;
11955;SDS011;6038;52.276;10.530;2022-10-16T03:07:10;0.87;;;0.87;;
11955;SDS011;6038;52.276;10.530;2022-10-16T03:09:36;1.23;;;1.23;;
11955;SDS011;6038;52.276;10.530;2022-10-16T03:12:02;1.00;;;1.00;;
11955;SDS011;6038;52.276;10.530;2022-10-16T03:14:28;1.30;;;1.30;;
11955;SDS011;6038;52.276;10.530;2022-10-16T03:16:54;0.77;;;0.77;;
11955;SDS011;6038;52.276;10.530;2022-10-16T03:19:20;0.87;;;0.87;;
11955;SDS011;6038;52.276;10.530;2022-10-16T03:21:46;0.83;;;0.83;;
11955;SDS011;6038;52.276;10.530;2022-10-16T03:24:12;1.10;;;1.10;;
11955;SDS011;6038;52.276;10.530;2022-10-16T03:26:38;1.03;;;1.03;;
11955;SDS011;6038;52.276;10.530;2022-10-16T03:29:04;1.30;;;1.30;;
11955;SDS011;6038;52.276;10.530;2022-10-16T03:31:31;1.27;;;1.27;;
11955;SDS011;6038;52.276;10.530;2022-10-16T03:33:57;0.83;;;0.83;;
11955;SDS011;6038;52.276;10.530;2022-10-16T03:36:23;0.87;;;0.87;;
11955;SDS011;6038;52.276;10.530;2022-10-16T03:38:49;0.83;;;0.83;;
11955;SDS011;6038;52.276;10.530;2022-10-16T03:41:15;1.10;;;1.10;;
11955;SDS011;6038;52.276;10.530;2022-10-16T03:43:41;0.77;;;0.77;;
11955;SDS011;6038;52.276;10.530;2022-10-16T03:46:07;0.97;;;0.97;;
11955;SDS011;6038;52.276;10.530;2022-10-16T03:48:33;0.80;;;0.80;;
11955;SDS011;6038;52.276;10.530;2022-10-16T03:50:59;1.17;;;1.17;;
11955;SDS011;6038;52.276;10.530;2022-10-16T03:53:25;0.83;;;0.83;;
11955;SDS011;6038;52.276;10.530;2022-10-16T03:55:51;1.07;;;1.07;;
11955;SDS011;6038;52.276;10.530;2022-10-16T03:58:17;0.93;;;0.93;;
11955;SDS011;6038;52.276;10.530;2022-10-16T04:00:45;1.00;;;1.00;;
11955;SDS011;6038;52.276;10.530;2022-10-16T04:03:12;0.97;;;0.97;;
11955;SDS011;6038;52.276;10.530;2022-10-16T04:05:38;1.03;;;1.03;;
11955;SDS011;6038;52.276;10.530;2022-10-16T04:08:04;1.00;;;1.00;;
11955;SDS011;6038;52.276;10.530;2022-10-16T04:10:30;1.03;;;1.03;;
11955;SDS011;6038;52.276;10.530;2022-10-16T04:12:56;1.07;;;1.07;;
11955;SDS011;6038;52.276;10.530;2022-10-16T04:15:23;0.97;;;0.97;;
11955;SDS011;6038;52.276;10.530;2022-10-16T04:17:49;0.87;;;0.87;;
11955;SDS011;6038;52.276;10.530;2022-10-16T04:20:15;1.17;;;1.17;;
11955;SDS011;6038;52.276;10.530;2022-10-16T04:22:41;1.00;;;1.00;;
11955;SDS011;6038;52.276;10.530;2022-10-16T04:25:07;1.03;;;1.03;;
11955;SDS011;6038;52.276;10.530;2022-10-16T04:27:33;0.97;;;0.97;;
11955;SDS011;6038;52.276;10.530;2022-10-16T04:30:00;1.20;;;1.20;;
11955;SDS011;6038;52.276;10.530;2022-10-16T04:32:26;1.23;;;1.23;;
11955;SDS011;6038;52.276;10.530;2022-10-16T04:34:52;1.07;;;1.07;;
11955;SDS011;6038;52.276;10.530;2022-10-16T04:37:18;0.97;;;0.97;;
11955;SDS011;6038;52.276;10.530;2022-10-16T04:39:44;1.10;;;1.10;;
11955;SDS011;6038;52.276;10.530;2022-10-16T04:42:11;1.20;;;1.20;;
11955;SDS011;6038;52.276;10.530;2022-10-16T04:44:37;1.07;;;1.07;;
11955;SDS011;6038;52.276;10.530;2022-10-16T04:47:03;0.90;;;0.90;;
11955;SDS011;6038;52.276;10.530;2022-10-16T04:49:29;1.03;;;1.03;;
11955;SDS011;6038;52.276;10.530;2022-10-16T04:51:55;1.23;;;1.23;;
11955;SDS011;6038;52.276;10.530;2022-10-16T04:54:21;0.97;;;0.97;;
11955;SDS011;6038;52.276;10.530;2022-10-16T04:56:47;1.03;;;1.03;;
11955;SDS011;6038;52.276;10.530;2022-10-16T04:59:16;0.93;;;0.93;;
11955;SDS011;6038;52.276;10.530;2022-10-16T05:01:42;0.97;;;0.97;;
11955;SDS011;6038;52.276;10.530;2022-10-16T05:04:08;1.03;;;1.03;;
11955;SDS011;6038;52.276;10.530;2022-10-16T05:06:34;0.87;;;0.87;;
11955;SDS011;6038;52.276;10.530;2022-10-16T05:09:00;1.07;;;1.07;;
11955;SDS011;6038;52.276;10.530;2022-10-16T05:11:26;1.13;;;1.13;;
11955;SDS011;6038;52.276;10.530;2022-10-16T05:13:52;1.07;;;1.07;;
11955;SDS011;6038;52.276;10.530;2022-10-16T05:16:18;1.03;;;1.03;;
11955;SDS011;6038;52.276;10.530;2022-10-16T05:18:44;1.17;;;1.17;;
11955;SDS011;6038;52.276;10.530;2022-10-16T05:21:10;1.23;;;1.23;;
11955;SDS011;6038;52.276;10.530;2022-10-16T05:23:36;0.93;;;0.93;;
11955;SDS011;6038;52.276;10.530;2022-10-16T05:26:02;1.10;;;1.10;;
11955;SDS011;6038;52.276;10.530;2022-10-16T05:28:29;1.03;;;1.03;;
11955;SDS011;6038;52.276;10.530;2022-10-16T05:30:55;1.03;;;1.03;;
11955;SDS011;6038;52.276;10.530;2022-10-16T05:33:21;1.13;;;1.13;;
11955;SDS011;6038;52.276;10.530;2022-10-16T05:35:48;1.13;;;1.13;;
11955;SDS011;6038;52.276;10.530;2022-10-16T05:38:14;1.07;;;1.07;;
11955;SDS011;6038;52.276;10.530;2022-10-16T05:40:41;0.93;;;0.93;;
11955;SDS011;6038;52.276;10.530;2022-10-16T05:43:07;1.10;;;1.10;;
11955;SDS011;6038;52.276;10.530;2022-10-16T05:45:33;1.07;;;1.07;;
11955;SDS011;6038;52.276;10.530;2022-10-16T05:47:59;1.13;;;1.13;;
11955;SDS011;6038;52.276;10.530;2022-10-16T05:50:26;1.03;;;1.03;;
11955;SDS011;6038;52.276;10.530;2022-10-16T05:52:52;1.47;;;1.47;;
11955;SDS011;6038;52.276;10.530;2022-10-16T05:55:18;1.07;;;1.07;;
11955;SDS011;6038;52.276;10.530;2022-10-16T05:57:44;1.13;;;1.13;;
11955;SDS011;6038;52.276;10.530;2022-10-16T06:00:10;1.07;;;1.07;;
11955;SDS011;6038;52.276;10.530;2022-10-16T06:02:36;1.43;;;1.43;;
11955;SDS011;6038;52.276;10.530;2022-10-16T06:05:02;1.27;;;1.27;;
11955;SDS011;6038;52.276;10.530;2022-10-16T06:07:28;1.17;;;1.17;;
11955;SDS011;6038;52.276;10.530;2022-10-16T06:09:54;1.07;;;1.07;;
11955;SDS011;6038;52.276;10.530;2022-10-16T06:12:20;1.03;;;1.03;;
11955;SDS011;6038;52.276;10.530;2022-10-16T06:14:46;1.03;;;1.03;;
11955;SDS011;6038;52.276;10.530;2022-10-16T06:17:13;0.90;;;0.90;;
11955;SDS011;6038;52.276;10.530;2022-10-16T06:19:39;1.00;;;1.00;;
11955;SDS011;6038;52.276;10.530;2022-10-16T06:22:06;0.93;;;0.93;;
11955;SDS011;6038;52.276;10.530;2022-10-16T06:24:32;1.03;;;1.03;;
11955;SDS011;6038;52.276;10.530;2022-10-16T06:26:58;1.10;;;1.10;;
11955;SDS011;6038;52.276;10.530;2022-10-16T06:29:24;1.03;;;1.03;;
11955;SDS011;6038;52.276;10.530;2022-10-16T06:31:50;1.23;;;1.23;;
11955;SDS011;6038;52.276;10.530;2022-10-16T06:34:16;0.97;;;0.97;;
11955;SDS011;6038;52.276;10.530;2022-10-16T06:36:42;1.03;;;1.03;;
11955;SDS011;6038;52.276;10.530;2022-10-16T06:39:08;1.10;;;1.10;;
11955;SDS011;6038;52.276;10.530;2022-10-16T06:41:34;1.07;;;1.07;;
11955;SDS011;6038;52.276;10.530;2022-10-16T06:44:01;1.10;;;1.10;;
11955;SDS011;6038;52.276;10.530;2022-10-16T06:46:27;1.27;;;1.27;;
11955;SDS011;6038;52.276;10.530;2022-10-16T06:48:53;1.13;;;1.13;;
11955;SDS011;6038;52.276;10.530;2022-10-16T06:51:20;1.07;;;1.07;;
11955;SDS011;6038;52.276;10.530;2022-10-16T06:53:47;1.10;;;1.10;;
11955;SDS011;6038;52.276;10.530;2022-10-16T06:56:24;1.93;;;1.83;;
11955;SDS011;6038;52.276;10.530;2022-10-16T06:58:50;1.33;;;1.33;;
11955;SDS011;6038;52.276;10.530;2022-10-16T07:01:17;1.33;;;1.33;;
11955;SDS011;6038;52.276;10.530;2022-10-16T07:03:44;4.17;;;3.90;;
11955;SDS011;6038;52.276;10.530;2022-10-16T07:06:11;4.43;;;4.17;;
11955;SDS011;6038;52.276;10.530;2022-10-16T07:08:38;4.70;;;4.40;;
11955;SDS011;6038;52.276;10.530;2022-10-16T07:11:09;1.63;;;1.57;;
11955;SDS011;6038;52.276;10.530;2022-10-16T07:13:36;1.57;;;1.53;;
11955;SDS011;6038;52.276;10.530;2022-10-16T07:16:21;1.93;;;1.87;;
11955;SDS011;6038;52.276;10.530;2022-10-16T07:18:48;2.77;;;2.63;;
11955;SDS011;6038;52.276;10.530;2022-10-16T07:21:17;3.43;;;3.27;;
11955;SDS011;6038;52.276;10.530;2022-10-16T07:23:44;4.80;;;4.53;;
11955;SDS011;6038;52.276;10.530;2022-10-16T07:26:10;5.47;;;5.13;;
11955;SDS011;6038;52.276;10.530;2022-10-16T07:28:36;5.07;;;4.77;;
11955;SDS011;6038;52.276;10.530;2022-10-16T07:31:03;4.97;;;4.70;;
11955;SDS011;6038;52.276;10.530;2022-10-16T07:33:30;5.47;;;5.17;;
11955;SDS011;6038;52.276;10.530;2022-10-16T07:35:56;5.53;;;5.23;;
11955;SDS011;6038;52.276;10.530;2022-10-16T07:38:22;4.63;;;4.40;;
11955;SDS011;6038;52.276;10.530;2022-10-16T07:40:55;4.70;;;4.47;;
11955;SDS011;6038;52.276;10.530;2022-10-16T07:43:21;5.43;;;5.13;;
11955;SDS011;6038;52.276;10.530;2022-10-16T07:45:48;5.13;;;4.83;;
11955;SDS011;6038;52.276;10.530;2022-10-16T07:48:14;4.63;;;4.40;;
11955;SDS011;6038;52.276;10.530;2022-10-16T07:50:40;5.23;;;4.93;;
11955;SDS011;6038;52.276;10.530;2022-10-16T07:53:07;5.47;;;5.17;;
11955;SDS011;6038;52.276;10.530;2022-10-16T07:55:33;5.00;;;4.73;;
11955;SDS011;6038;52.276;10.530;2022-10-16T07:57:59;5.50;;;5.20;;
11955;SDS011;6038;52.276;10.530;2022-10-16T08:00:25;4.67;;;4.43;;
11955;SDS011;6038;52.276;10.530;2022-10-16T08:02:51;5.07;;;4.80;;
11955;SDS011;6038;52.276;10.530;2022-10-16T08:05:17;5.40;;;5.10;;
11955;SDS011;6038;52.276;10.530;2022-10-16T08:07:43;5.37;;;5.07;;
11955;SDS011;6038;52.276;10.530;2022-10-16T08:10:15;4.53;;;4.33;;
11955;SDS011;6038;52.276;10.530;2022-10-16T08:12:42;1.47;;;1.47;;
11955;SDS011;6038;52.276;10.530;2022-10-16T08:15:08;0.83;;;0.83;;
11955;SDS011;6038;52.276;10.530;2022-10-16T08:17:34;1.30;;;1.30;;
11955;SDS011;6038;52.276;10.530;2022-10-16T08:20:00;1.03;;;1.03;;
11955;SDS011;6038;52.276;10.530;2022-10-16T08:22:26;4.07;;;3.87;;
11955;SDS011;6038;52.276;10.530;2022-10-16T08:24:52;5.40;;;5.10;;
11955;SDS011;6038;52.276;10.530;2022-10-16T08:27:18;5.70;;;5.40;;
11955;SDS011;6038;52.276;10.530;2022-10-16T08:29:44;5.40;;;5.10;;
11955;SDS011;6038;52.276;10.530;2022-10-16T08:32:10;5.60;;;5.30;;
11955;SDS011;6038;52.276;10.530;2022-10-16T08:34:36;5.80;;;5.50;;
11955;SDS011;6038;52.276;10.530;2022-10-16T08:37:02;5.73;;;5.43;;
11955;SDS011;6038;52.276;10.530;2022-10-16T08:39:28;5.83;;;5.53;;
11955;SDS011;6038;52.276;10.530;2022-10-16T08:49:19;5.70;;;5.40;;
11955;SDS011;6038;52.276;10.530;2022-10-16T08:51:45;5.73;;;5.43;;
11955;SDS011;6038;52.276;10.530;2022-10-16T08:56:48;6.10;;;5.80;;
11955;SDS011;6038;52.276;10.530;2022-10-16T08:59:14;5.87;;;5.57;;
11955;SDS011;6038;52.276;10.530;2022-10-16T09:01:44;5.73;;;5.43;;
11955;SDS011;6038;52.276;10.530;2022-10-16T09:06:57;5.80;;;5.50;;
11955;SDS011;6038;52.276;10.530;2022-10-16T09:12:02;5.73;;;5.43;;
11955;SDS011;6038;52.276;10.530;2022-10-16T09:22:38;4.80;;;4.60;;
11955;SDS011;6038;52.276;10.530;2022-10-16T09:25:10;5.23;;;4.97;;
11955;SDS011;6038;52.276;10.530;2022-10-16T09:27:37;4.10;;;3.90;;
11955;SDS011;6038;52.276;10.530;2022-10-16T09:30:13;3.57;;;3.40;;
11955;SDS011;6038;52.276;10.530;2022-10-16T09:32:40;3.50;;;3.33;;
11955;SDS011;6038;52.276;10.530;2022-10-16T09:35:10;3.10;;;3.00;;
11955;SDS011;6038;52.276;10.530;2022-10-16T09:37:38;3.20;;;3.10;;
11955;SDS011;6038;52.276;10.530;2022-10-16T09:40:06;3.67;;;3.47;;
11955;SDS011;6038;52.276;10.530;2022-10-16T09:42:32;3.47;;;3.33;;
11955;SDS011;6038;52.276;10.530;2022-10-16T09:44:59;3.57;;;3.40;;
11955;SDS011;6038;52.276;10.530;2022-10-16T09:47:26;4.27;;;4.07;;
11955;SDS011;6038;52.276;10.530;2022-10-16T09:50:03;3.63;;;3.47;;
11955;SDS011;6038;52.276;10.530;2022-10-16T09:52:31;3.47;;;3.30;;
11955;SDS011;6038;52.276;10.530;2022-10-16T09:54:58;3.73;;;3.53;;
11955;SDS011;6038;52.276;10.530;2022-10-16T09:57:24;4.00;;;3.80;;
11955;SDS011;6038;52.276;10.530;2022-10-16T10:02:17;3.70;;;3.50;;
11955;SDS011;6038;52.276;10.530;2022-10-16T10:04:48;4.20;;;4.00;;
11955;SDS011;6038;52.276;10.530;2022-10-16T10:07:19;4.40;;;4.20;;
11955;SDS011;6038;52.276;10.530;2022-10-16T10:09:46;4.23;;;4.03;;
11955;SDS011;6038;52.276;10.530;2022-10-16T10:12:19;3.90;;;3.70;;
11955;SDS011;6038;52.276;10.530;2022-10-16T10:14:47;3.15;;;3.05;;
11955;SDS011;6038;52.276;10.530;2022-10-16T10:17:15;0.75;;;0.75;;
11955;SDS011;6038;52.276;10.530;2022-10-16T10:22:23;1.23;;;1.23;;
11955;SDS011;6038;52.276;10.530;2022-10-16T10:24:57;1.15;;;1.15;;
11955;SDS011;6038;52.276;10.530;2022-10-16T10:27:31;1.27;;;1.27;;
11955;SDS011;6038;52.276;10.530;2022-10-16T10:32:37;1.10;;;1.10;;
11955;SDS011;6038;52.276;10.530;2022-10-16T10:42:59;2.20;;;2.10;;
11955;SDS011;6038;52.276;10.530;2022-10-16T10:45:42;1.50;;;1.50;;
11955;SDS011;6038;52.276;10.530;2022-10-16T10:51:58;1.25;;;1.25;;
11955;SDS011;6038;52.276;10.530;2022-10-16T10:56:40;2.05;;;1.95;;
11955;SDS011;6038;52.276;10.530;2022-10-16T11:01:37;2.30;;;2.20;;
11955;SDS011;6038;52.276;10.530;2022-10-16T11:07:45;1.77;;;1.67;;
11955;SDS011;6038;52.276;10.530;2022-10-16T11:10:12;3.40;;;3.20;;
11955;SDS011;6038;52.276;10.530;2022-10-16T11:12:40;2.63;;;2.53;;
11955;SDS011;6038;52.276;10.530;2022-10-16T11:15:12;2.35;;;2.25;;
11955;SDS011;6038;52.276;10.530;2022-10-16T11:17:41;1.55;;;1.55;;
11955;SDS011;6038;52.276;10.530;2022-10-16T11:22:38;2.17;;;2.08;;
11955;SDS011;6038;52.276;10.530;2022-10-16T11:25:12;1.08;;;1.08;;
11955;SDS011;6038;52.276;10.530;2022-10-16T11:30:27;1.50;;;1.50;;
11955;SDS011;6038;52.276;10.530;2022-10-16T11:38:01;1.15;;;1.15;;
11955;SDS011;6038;52.276;10.530;2022-10-16T11:40:31;1.48;;;1.48;;
11955;SDS011;6038;52.276;10.530;2022-10-16T11:43:02;1.15;;;1.13;;
11955;SDS011;6038;52.276;10.530;2022-10-16T11:45:36;1.27;;;1.27;;
11955;SDS011;6038;52.276;10.530;2022-10-16T11:48:07;1.60;;;1.60;;
11955;SDS011;6038;52.276;10.530;2022-10-16T11:50:39;1.20;;;1.20;;
11955;SDS011;6038;52.276;10.530;2022-10-16T11:55:40;1.23;;;1.23;;
11955;SDS011;6038;52.276;10.530;2022-10-16T12:00:53;1.00;;;1.00;;
11955;SDS011;6038;52.276;10.530;2022-10-16T12:08:34;1.20;;;1.20;;
11955;SDS011;6038;52.276;10.530;2022-10-16T12:16:32;1.17;;;1.17;;
11955;SDS011;6038;52.276;10.530;2022-10-16T12:21:36;1.27;;;1.27;;
11955;SDS011;6038;52.276;10.530;2022-10-16T12:24:02;1.25;;;1.25;;
11955;SDS011;6038;52.276;10.530;2022-10-16T12:26:37;0.88;;;0.88;;
11955;SDS011;6038;52.276;10.530;2022-10-16T12:31:48;1.45;;;1.45;;
11955;SDS011;6038;52.276;10.530;2022-10-16T12:34:28;0.95;;;0.95;;
11955;SDS011;6038;52.276;10.530;2022-10-16T12:36:55;1.38;;;1.38;;
11955;SDS011;6038;52.276;10.530;2022-10-16T12:39:23;1.33;;;1.33;;
11955;SDS011;6038;52.276;10.530;2022-10-16T12:42:00;1.23;;;1.23;;
11955;SDS011;6038;52.276;10.530;2022-10-16T12:44:27;1.25;;;1.25;;
11955;SDS011;6038;52.276;10.530;2022-10-16T12:46:57;1.33;;;1.33;;
11955;SDS011;6038;52.276;10.530;2022-10-16T12:51:55;1.45;;;1.45;;
11955;SDS011;6038;52.276;10.530;2022-10-16T12:54:37;1.42;;;1.42;;
11955;SDS011;6038;52.276;10.530;2022-10-16T12:57:09;1.20;;;1.20;;
11955;SDS011;6038;52.276;10.530;2022-10-16T13:02:18;1.58;;;1.58;;
11955;SDS011;6038;52.276;10.530;2022-10-16T13:09:58;1.75;;;1.70;;
11955;SDS011;6038;52.276;10.530;2022-10-16T13:12:40;1.73;;;1.70;;
11955;SDS011;6038;52.276;10.530;2022-10-16T13:20:23;1.42;;;1.42;;
11955;SDS011;6038;52.276;10.530;2022-10-16T13:25:46;1.17;;;1.17;;
11955;SDS011;6038;52.276;10.530;2022-10-16T13:28:14;0.85;;;0.85;;
11955;SDS011;6038;52.276;10.530;2022-10-16T13:30:54;1.60;;;1.60;;
11955;SDS011;6038;52.276;10.530;2022-10-16T13:35:52;1.95;;;1.85;;
11955;SDS011;6038;52.276;10.530;2022-10-16T13:38:22;1.63;;;1.63;;
11955;SDS011;6038;52.276;10.530;2022-10-16T13:43:18;1.48;;;1.48;;
11955;SDS011;6038;52.276;10.530;2022-10-16T13:45:58;1.45;;;1.45;;
11955;SDS011;6038;52.276;10.530;2022-10-16T13:48:24;1.92;;;1.85;;
11955;SDS011;6038;52.276;10.530;2022-10-16T13:51:03;1.65;;;1.60;;
11955;SDS011;6038;52.276;10.530;2022-10-16T13:53:31;2.70;;;2.60;;
11955;SDS011;6038;52.276;10.530;2022-10-16T13:55:57;2.70;;;2.60;;
11955;SDS011;6038;52.276;10.530;2022-10-16T13:58:25;3.85;;;3.65;;
11955;SDS011;6038;52.276;10.530;2022-10-16T14:01:02;4.25;;;4.05;;
11955;SDS011;6038;52.276;10.530;2022-10-16T14:03:28;4.63;;;4.43;;
11955;SDS011;6038;52.276;10.530;2022-10-16T14:05:56;4.53;;;4.32;;
11955;SDS011;6038;52.276;10.530;2022-10-16T14:08:23;4.80;;;4.60;;
11955;SDS011;6038;52.276;10.530;2022-10-16T14:10:51;3.60;;;3.40;;
11955;SDS011;6038;52.276;10.530;2022-10-16T14:13:19;4.25;;;4.05;;
11955;SDS011;6038;52.276;10.530;2022-10-16T14:15:46;4.75;;;4.55;;
11955;SDS011;6038;52.276;10.530;2022-10-16T14:18:15;4.07;;;3.88;;
11955;SDS011;6038;52.276;10.530;2022-10-16T14:20:43;9.85;;;9.25;;
11955;SDS011;6038;52.276;10.530;2022-10-16T14:23:19;8.32;;;7.82;;
11955;SDS011;6038;52.276;10.530;2022-10-16T14:25:46;8.30;;;7.88;;
11955;SDS011;6038;52.276;10.530;2022-10-16T14:28:19;8.15;;;7.75;;
11955;SDS011;6038;52.276;10.530;2022-10-16T14:30:49;6.88;;;6.47;;
11955;SDS011;6038;52.276;10.530;2022-10-16T14:33:20;3.33;;;3.17;;
11955;SDS011;6038;52.276;10.530;2022-10-16T14:35:46;2.85;;;2.75;;
11955;SDS011;6038;52.276;10.530;2022-10-16T14:38:23;1.75;;;1.73;;
11955;SDS011;6038;52.276;10.530;2022-10-16T14:40:50;2.88;;;2.78;;
11955;SDS011;6038;52.276;10.530;2022-10-16T14:43:25;2.40;;;2.30;;
11955;SDS011;6038;52.276;10.530;2022-10-16T14:45:53;1.92;;;1.83;;
11955;SDS011;6038;52.276;10.530;2022-10-16T14:48:20;4.00;;;3.80;;
11955;SDS011;6038;52.276;10.530;2022-10-16T14:50:46;4.32;;;4.13;;
11955;SDS011;6038;52.276;10.530;2022-10-16T14:53:12;2.67;;;2.58;;
11955;SDS011;6038;52.276;10.530;2022-10-16T14:55:38;3.15;;;3.05;;
11955;SDS011;6038;52.276;10.530;2022-10-16T14:58:05;3.20;;;3.10;;
11955;SDS011;6038;52.276;10.530;2022-10-16T15:00:31;2.33;;;2.22;;
11955;SDS011;6038;52.276;10.530;2022-10-16T15:02:57;2.67;;;2.58;;
11955;SDS011;6038;52.276;10.530;2022-10-16T15:05:25;1.42;;;1.42;;
11955;SDS011;6038;52.276;10.530;2022-10-16T15:07:52;1.85;;;1.75;;
11955;SDS011;6038;52.276;10.530;2022-10-16T15:10:18;1.98;;;1.88;;
11955;SDS011;6038;52.276;10.530;2022-10-16T15:12:45;1.88;;;1.77;;
11955;SDS011;6038;52.276;10.530;2022-10-16T15:17:56;1.92;;;1.83;;
11955;SDS011;6038;52.276;10.530;2022-10-16T15:20:26;1.50;;;1.50;;
11955;SDS011;6038;52.276;10.530;2022-10-16T15:22:52;1.63;;;1.63;;
11955;SDS011;6038;52.276;10.530;2022-10-16T15:25:37;1.52;;;1.52;;
11955;SDS011;6038;52.276;10.530;2022-10-16T15:28:07;1.52;;;1.52;;
11955;SDS011;6038;52.276;10.530;2022-10-16T15:30:34;1.70;;;1.70;;
11955;SDS011;6038;52.276;10.530;2022-10-16T15:33:01;1.75;;;1.70;;
11955;SDS011;6038;52.276;10.530;2022-10-16T15:35:27;1.50;;;1.50;;
11955;SDS011;6038;52.276;10.530;2022-10-16T15:37:53;1.40;;;1.40;;
11955;SDS011;6038;52.276;10.530;2022-10-16T15:40:20;2.40;;;2.30;;
11955;SDS011;6038;52.276;10.530;2022-10-16T15:42:46;2.50;;;2.40;;
11955;SDS011;6038;52.276;10.530;2022-10-16T15:45:12;2.58;;;2.47;;
11955;SDS011;6038;52.276;10.530;2022-10-16T15:47:40;2.22;;;2.13;;
11955;SDS011;6038;52.276;10.530;2022-10-16T15:50:06;2.88;;;2.78;;
11955;SDS011;6038;52.276;10.530;2022-10-16T15:52:32;2.58;;;2.47;;
11955;SDS011;6038;52.276;10.530;2022-10-16T15:54:58;2.67;;;2.58;;
11955;SDS011;6038;52.276;10.530;2022-10-16T15:57:24;2.60;;;2.50;;
11955;SDS011;6038;52.276;10.530;2022-10-16T15:59:51;2.80;;;2.70;;
11955;SDS011;6038;52.276;10.530;2022-10-16T16:02:17;2.95;;;2.85;;
11955;SDS011;6038;52.276;10.530;2022-10-16T16:04:43;2.95;;;2.85;;
11955;SDS011;6038;52.276;10.530;2022-10-16T16:07:09;2.83;;;2.72;;
11955;SDS011;6038;52.276;10.530;2022-10-16T16:09:35;2.78;;;2.67;;
11955;SDS011;6038;52.276;10.530;2022-10-16T16:12:01;3.05;;;2.95;;
11955;SDS011;6038;52.276;10.530;2022-10-16T16:14:27;3.20;;;3.10;;
11955;SDS011;6038;52.276;10.530;2022-10-16T16:16:56;3.22;;;3.13;;
11955;SDS011;6038;52.276;10.530;2022-10-16T16:19:23;3.13;;;3.03;;
11955;SDS011;6038;52.276;10.530;2022-10-16T16:21:49;3.53;;;3.33;;
11955;SDS011;6038;52.276;10.530;2022-10-16T16:24:15;3.15;;;3.05;;
11955;SDS011;6038;52.276;10.530;2022-10-16T16:26:41;3.63;;;3.43;;
11955;SDS011;6038;52.276;10.530;2022-10-16T16:29:14;6.13;;;5.83;;
11955;SDS011;6038;52.276;10.530;2022-10-16T16:31:41;5.97;;;5.67;;
11955;SDS011;6038;52.276;10.530;2022-10-16T16:34:07;6.37;;;6.07;;
11955;SDS011;6038;52.276;10.530;2022-10-16T16:36:34;6.40;;;6.10;;
11955;SDS011;6038;52.276;10.530;2022-10-16T16:39:00;7.03;;;6.63;;
11955;SDS011;6038;52.276;10.530;2022-10-16T16:41:27;6.87;;;6.47;;
11955;SDS011;6038;52.276;10.530;2022-10-16T16:43:53;6.90;;;6.50;;
11955;SDS011;6038;52.276;10.530;2022-10-16T16:46:20;7.60;;;7.20;;
11955;SDS011;6038;52.276;10.530;2022-10-16T16:48:46;7.43;;;7.03;;
11955;SDS011;6038;52.276;10.530;2022-10-16T16:51:15;7.30;;;6.90;;
11955;SDS011;6038;52.276;10.530;2022-10-16T16:53:43;8.07;;;7.63;;